Thurso, Canada
Current Conditions -  °F | °C
As of 3:00 PM on Friday 24 Oct 2014 (Local Time) from CYND Reporting Station
Scattered Clouds Scattered Clouds  
Wind Chill: 63°   Ceiling: Unl
Heat Index: 63°   Visibility: 15mi
Dew Point: 41°   Wind: 8mph
Humidity: 45%   Direction: 210°SSW
Pressure: 29.83"   Gusts: NA
Location:  45.58°N, 75.23°W
Report Text: CYND 241900Z 21007KT 190V260 15SM FEW120 SCT240 17/05 A2983 RMK AC1CI2 SLP102 DENSITY ALT 600FT
Loading
Personal Weather Stations






























Interactive Weather Map
Tropical Storm Tracking
New forecast layout! Learn more

10-Day Weather Forecast

Advertisements
Track Severe Weather on mobile